createdAt,value
2022-09-01T00:04:58.675Z,100.00
2022-09-01T00:10:02.909Z,100.00
2022-09-01T00:15:07.684Z,100.00
2022-09-01T00:20:13.429Z,100.00
2022-09-01T00:25:20.169Z,100.00
2022-09-01T00:30:23.145Z,100.00
2022-09-01T00:35:27.256Z,100.00
2022-09-01T00:40:29.954Z,100.00
2022-09-01T00:45:33.278Z,100.00
2022-09-01T00:50:37.954Z,100.00
2022-09-01T00:55:40.618Z,100.00
2022-09-01T01:00:44.043Z,100.00
2022-09-01T01:05:53.816Z,100.00
2022-09-01T01:10:56.435Z,100.00
2022-09-01T01:15:59.970Z,100.00
2022-09-01T01:21:23.244Z,100.00
2022-09-01T01:26:27.247Z,100.00
2022-09-01T01:31:30.159Z,100.00
2022-09-01T01:36:36.719Z,100.00
2022-09-01T01:41:45.390Z,100.00
2022-09-01T01:46:51.978Z,100.00
2022-09-01T01:51:56.019Z,100.00
2022-09-01T01:57:04.334Z,100.00
2022-09-01T02:02:09.706Z,100.00
2022-09-01T02:07:13.568Z,100.00
2022-09-01T02:12:19.425Z,100.00
2022-09-01T02:17:22.983Z,100.00
2022-09-01T02:22:25.843Z,100.00
2022-09-01T02:27:29.814Z,100.00
2022-09-01T02:32:32.508Z,100.00
2022-09-01T02:37:35.316Z,100.00
2022-09-01T02:42:43.458Z,100.00
2022-09-01T02:47:48.420Z,100.00
2022-09-01T02:52:53.198Z,100.00
2022-09-01T02:57:58.896Z,100.00
2022-09-01T03:03:02.635Z,100.00
2022-09-01T03:08:10.351Z,100.00
2022-09-01T03:13:16.852Z,100.00
2022-09-01T03:18:19.800Z,100.00
2022-09-01T03:23:25.223Z,100.00
2022-09-01T03:28:29.792Z,100.00
2022-09-01T03:33:33.652Z,100.00
2022-09-01T03:38:36.974Z,100.00
2022-09-01T03:43:46.904Z,100.00
2022-09-01T03:48:52.775Z,100.00
2022-09-01T03:53:56.800Z,100.00
2022-09-01T03:59:01.720Z,100.00
2022-09-01T04:04:04.995Z,100.00
2022-09-01T04:09:10.799Z,100.00
2022-09-01T04:14:15.964Z,100.00
2022-09-01T04:19:25.333Z,100.00
2022-09-01T04:24:31.021Z,100.00
2022-09-01T04:29:35.880Z,100.00
2022-09-01T04:34:41.711Z,100.00
2022-09-01T04:39:55.636Z,100.00
2022-09-01T04:45:10.102Z,100.00
2022-09-01T04:50:17.108Z,100.00
2022-09-01T04:55:34.924Z,100.00
2022-09-01T05:00:38.985Z,100.00
2022-09-01T05:05:43.683Z,100.00
2022-09-01T05:10:48.908Z,100.00
2022-09-01T05:16:07.465Z,100.00
2022-09-01T05:21:11.077Z,100.00
2022-09-01T05:26:17.856Z,100.00
2022-09-01T05:31:22.889Z,100.00
2022-09-01T05:36:26.722Z,100.00
2022-09-01T05:41:33.725Z,100.00
2022-09-01T05:46:39.772Z,100.00
2022-09-01T05:51:50.951Z,100.00
2022-09-01T05:56:57.772Z,100.00
2022-09-01T06:02:08.894Z,100.00
2022-09-01T06:07:16.374Z,100.00
2022-09-01T06:12:23.420Z,100.00
2022-09-01T06:17:30.000Z,100.00
2022-09-01T06:22:37.484Z,100.00
2022-09-01T06:27:41.145Z,100.00
2022-09-01T06:32:45.615Z,100.00
2022-09-01T06:37:49.210Z,100.00
2022-09-01T06:43:09.204Z,100.00
2022-09-01T06:48:17.792Z,100.00
2022-09-01T06:53:37.257Z,100.00
2022-09-01T06:58:44.922Z,100.00
2022-09-01T07:03:51.901Z,100.00
2022-09-01T07:09:38.513Z,100.00
2022-09-01T07:20:24.567Z,100.00
2022-09-01T07:25:34.927Z,100.00
2022-09-01T07:37:16.167Z,100.00
2022-09-01T07:47:57.951Z,100.00
2022-09-01T07:53:02.827Z,100.00
2022-09-01T07:58:06.508Z,100.00
2022-09-01T08:03:09.329Z,100.00
2022-09-01T08:08:23.711Z,100.00
2022-09-01T08:13:28.836Z,100.00
2022-09-01T08:18:48.188Z,100.00
2022-09-01T08:24:01.491Z,100.00
2022-09-01T08:29:05.332Z,100.00
2022-09-01T08:34:12.545Z,100.00
2022-09-01T08:39:16.480Z,100.00
2022-09-01T08:44:25.931Z,100.00
2022-09-01T08:49:29.653Z,100.00
2022-09-01T08:55:05.487Z,100.00
2022-09-01T09:00:11.083Z,100.00
2022-09-01T09:05:22.962Z,100.00
2022-09-01T09:10:29.925Z,100.00
2022-09-01T09:15:40.022Z,100.00
2022-09-01T09:20:43.422Z,100.00
2022-09-01T09:25:47.332Z,100.00
2022-09-01T09:30:50.048Z,100.00
2022-09-01T09:35:54.296Z,100.00
2022-09-01T09:41:16.375Z,100.00
2022-09-01T09:46:29.402Z,100.00
2022-09-01T09:51:32.027Z,100.00
2022-09-01T09:56:36.148Z,100.00
2022-09-01T10:01:38.809Z,100.00
2022-09-01T10:06:45.882Z,100.00
2022-09-01T10:11:53.891Z,100.00
2022-09-01T10:17:01.667Z,100.00
2022-09-01T10:22:06.430Z,100.00
2022-09-01T10:27:15.513Z,100.00
2022-09-01T10:32:37.036Z,100.00
2022-09-01T10:37:42.874Z,100.00
2022-09-01T10:42:55.243Z,100.00
2022-09-01T10:48:33.367Z,100.00
2022-09-01T10:53:40.907Z,100.00
2022-09-01T11:04:15.650Z,100.00
2022-09-01T11:09:24.935Z,100.00
2022-09-01T11:14:29.230Z,100.00
2022-09-01T11:19:37.770Z,100.00
2022-09-01T11:25:12.961Z,100.00
2022-09-01T11:30:19.651Z,100.00
2022-09-01T11:35:24.658Z,100.00
2022-09-01T11:40:32.350Z,100.00
2022-09-01T11:45:39.534Z,100.00
2022-09-01T11:50:43.117Z,100.00
2022-09-01T11:55:48.827Z,100.00
2022-09-01T12:00:52.726Z,100.00
2022-09-01T12:06:01.123Z,100.00
2022-09-01T12:11:06.053Z,99.10
2022-09-01T12:16:18.362Z,91.45
2022-09-01T12:21:23.952Z,86.94
2022-09-01T12:26:27.931Z,89.76
2022-09-01T12:31:31.917Z,87.63
2022-09-01T12:36:35.881Z,87.28
2022-09-01T12:41:40.489Z,85.71
2022-09-01T12:46:46.728Z,88.35
2022-09-01T12:51:49.558Z,92.05
2022-09-01T12:56:52.304Z,91.92
2022-09-01T13:01:56.437Z,93.94
2022-09-01T13:07:04.436Z,89.04
2022-09-01T13:12:16.565Z,88.69
2022-09-01T13:17:20.835Z,86.89
2022-09-01T13:22:23.422Z,85.20
2022-09-01T13:27:26.308Z,81.14
2022-09-01T13:32:30.836Z,78.15
2022-09-01T13:37:33.723Z,78.37
2022-09-01T13:42:36.524Z,79.65
2022-09-01T13:48:15.214Z,74.64
2022-09-01T13:53:03.248Z,74.08
2022-09-01T13:58:08.723Z,72.20
2022-09-01T14:03:15.676Z,72.07
2022-09-01T14:08:20.886Z,70.68
2022-09-01T14:13:25.481Z,68.67
2022-09-01T14:18:36.755Z,68.49
2022-09-01T14:23:39.609Z,68.48
2022-09-01T14:28:45.519Z,81.08
2022-09-01T14:33:50.031Z,83.16
2022-09-01T14:38:53.721Z,84.33
2022-09-01T14:44:02.326Z,87.99
2022-09-01T14:49:07.714Z,89.02
2022-09-01T14:54:10.361Z,88.50
2022-09-01T14:59:13.250Z,91.27
2022-09-01T15:04:17.202Z,91.28
2022-09-01T15:09:19.841Z,91.00
2022-09-01T15:14:22.585Z,91.84
2022-09-01T15:19:26.595Z,94.92
2022-09-01T15:24:29.292Z,95.81
2022-09-01T15:29:34.000Z,97.68
2022-09-01T15:34:38.321Z,96.15
2022-09-01T15:39:40.969Z,97.18
2022-09-01T15:44:43.598Z,98.28
2022-09-01T15:49:47.655Z,96.78
2022-09-01T15:54:50.301Z,97.03
2022-09-01T15:59:52.911Z,97.57
2022-09-01T16:04:57.438Z,97.56
2022-09-01T16:10:01.152Z,97.13
2022-09-01T16:15:04.511Z,98.28
2022-09-01T16:20:11.892Z,98.60
2022-09-01T16:25:19.126Z,95.79
2022-09-01T16:30:24.616Z,95.12
2022-09-01T16:35:35.836Z,94.55
2022-09-01T16:40:44.917Z,93.97
2022-09-01T16:45:56.622Z,92.75
2022-09-01T16:51:04.448Z,93.92
2022-09-01T16:56:10.782Z,94.94
2022-09-01T17:01:20.349Z,94.36
2022-09-01T17:06:32.052Z,94.11
2022-09-01T17:11:39.247Z,95.63
2022-09-01T17:16:44.294Z,93.62
2022-09-01T17:21:53.814Z,93.81
2022-09-01T17:26:58.076Z,95.42
2022-09-01T17:32:04.728Z,95.91
2022-09-01T17:37:17.547Z,96.66
2022-09-01T17:42:27.329Z,98.09
2022-09-01T17:47:37.292Z,100.00
2022-09-01T17:52:52.624Z,100.00
2022-09-01T17:58:00.057Z,100.00
2022-09-01T18:03:15.103Z,100.00
2022-09-01T18:08:30.203Z,100.00
2022-09-01T18:13:52.449Z,100.00
2022-09-01T18:18:58.831Z,100.00
2022-09-01T18:24:12.592Z,100.00
2022-09-01T18:29:15.380Z,100.00
2022-09-01T18:34:22.483Z,100.00
2022-09-01T18:39:29.657Z,100.00
2022-09-01T18:44:41.123Z,100.00
2022-09-01T18:49:53.365Z,100.00
2022-09-01T18:55:02.382Z,100.00
2022-09-01T19:00:17.880Z,100.00
2022-09-01T19:05:33.521Z,100.00
2022-09-01T19:10:42.509Z,100.00
2022-09-01T19:15:53.680Z,100.00
2022-09-01T19:20:58.849Z,100.00
2022-09-01T19:26:07.037Z,100.00
2022-09-01T19:31:17.932Z,100.00
2022-09-01T19:36:27.635Z,100.00
2022-09-01T19:41:35.380Z,100.00
2022-09-01T19:46:42.253Z,100.00
2022-09-01T19:51:51.369Z,100.00
2022-09-01T19:56:59.669Z,100.00
2022-09-01T20:02:07.192Z,100.00
2022-09-01T20:07:15.983Z,100.00
2022-09-01T20:12:30.163Z,100.00
2022-09-01T20:17:38.100Z,100.00
2022-09-01T20:22:51.141Z,100.00
2022-09-01T20:28:00.796Z,100.00
2022-09-01T20:33:06.125Z,100.00
2022-09-01T20:38:29.430Z,100.00
2022-09-01T20:43:39.985Z,100.00
2022-09-01T20:48:42.824Z,100.00
2022-09-01T20:53:56.320Z,100.00
2022-09-01T20:59:03.861Z,100.00
2022-09-01T21:04:24.502Z,100.00
2022-09-01T21:09:33.248Z,100.00
2022-09-01T21:14:46.509Z,100.00
2022-09-01T21:19:56.540Z,100.00
2022-09-01T21:24:59.341Z,100.00
2022-09-01T21:30:07.225Z,100.00
2022-09-01T21:35:12.945Z,100.00
2022-09-01T21:40:16.448Z,100.00
2022-09-01T21:45:20.720Z,100.00
2022-09-01T21:50:24.991Z,100.00
2022-09-01T21:55:27.730Z,100.00
2022-09-01T22:00:33.894Z,100.00
2022-09-01T22:05:41.735Z,100.00
2022-09-01T22:10:47.436Z,100.00
2022-09-01T22:15:53.368Z,100.00
2022-09-01T22:21:02.594Z,100.00
2022-09-01T22:26:05.930Z,100.00
2022-09-01T22:31:14.068Z,100.00
2022-09-01T22:36:21.730Z,100.00
2022-09-01T22:41:25.983Z,100.00
2022-09-01T22:46:30.727Z,100.00
2022-09-01T22:51:33.747Z,100.00
2022-09-01T22:56:38.061Z,100.00
2022-09-01T23:01:44.937Z,100.00
2022-09-01T23:06:49.479Z,100.00
2022-09-01T23:11:52.439Z,100.00
2022-09-01T23:16:56.579Z,100.00
2022-09-01T23:21:59.476Z,100.00
2022-09-01T23:27:03.407Z,100.00
2022-09-01T23:32:07.595Z,100.00
2022-09-01T23:37:10.574Z,100.00
2022-09-01T23:42:13.242Z,100.00
2022-09-01T23:47:17.459Z,100.00
2022-09-01T23:52:20.094Z,100.00
2022-09-01T23:57:22.846Z,100.00
